sensor_id;sensor_type;location;lat;lon;timestamp;P1;durP1;ratioP1;P2;durP2;ratioP2
8415;SDS011;4245;42.120;24.732;2023-05-10T00:00:10;7.53;;;5.23;;
8415;SDS011;4245;42.120;24.732;2023-05-10T00:02:38;10.13;;;5.37;;
8415;SDS011;4245;42.120;24.732;2023-05-10T00:05:05;11.57;;;5.80;;
8415;SDS011;4245;42.120;24.732;2023-05-10T00:07:33;9.77;;;6.13;;
8415;SDS011;4245;42.120;24.732;2023-05-10T00:10:00;10.60;;;6.63;;
8415;SDS011;4245;42.120;24.732;2023-05-10T00:12:26;9.00;;;6.77;;
8415;SDS011;4245;42.120;24.732;2023-05-10T00:14:55;12.13;;;7.13;;
8415;SDS011;4245;42.120;24.732;2023-05-10T00:17:21;8.87;;;7.27;;
8415;SDS011;4245;42.120;24.732;2023-05-10T00:19:48;13.93;;;7.40;;
8415;SDS011;4245;42.120;24.732;2023-05-10T00:22:15;9.73;;;7.47;;
8415;SDS011;4245;42.120;24.732;2023-05-10T00:24:42;12.17;;;8.07;;
8415;SDS011;4245;42.120;24.732;2023-05-10T00:27:09;9.73;;;7.03;;
8415;SDS011;4245;42.120;24.732;2023-05-10T00:29:35;11.03;;;7.67;;
8415;SDS011;4245;42.120;24.732;2023-05-10T00:32:04;11.10;;;6.83;;
8415;SDS011;4245;42.120;24.732;2023-05-10T00:34:31;12.90;;;7.00;;
8415;SDS011;4245;42.120;24.732;2023-05-10T00:36:57;12.83;;;7.47;;
8415;SDS011;4245;42.120;24.732;2023-05-10T00:39:24;12.60;;;7.23;;
8415;SDS011;4245;42.120;24.732;2023-05-10T00:41:51;11.77;;;6.60;;
8415;SDS011;4245;42.120;24.732;2023-05-10T00:44:18;10.20;;;6.60;;
8415;SDS011;4245;42.120;24.732;2023-05-10T00:46:45;10.17;;;6.47;;
8415;SDS011;4245;42.120;24.732;2023-05-10T00:49:14;14.40;;;6.53;;
8415;SDS011;4245;42.120;24.732;2023-05-10T00:51:41;9.67;;;6.23;;
8415;SDS011;4245;42.120;24.732;2023-05-10T00:54:09;10.13;;;5.60;;
8415;SDS011;4245;42.120;24.732;2023-05-10T00:56:38;9.40;;;6.10;;
8415;SDS011;4245;42.120;24.732;2023-05-10T00:59:05;10.20;;;6.40;;
8415;SDS011;4245;42.120;24.732;2023-05-10T01:01:32;10.20;;;6.40;;
8415;SDS011;4245;42.120;24.732;2023-05-10T01:03:58;10.53;;;5.87;;
8415;SDS011;4245;42.120;24.732;2023-05-10T01:06:27;10.40;;;5.73;;
8415;SDS011;4245;42.120;24.732;2023-05-10T01:08:54;10.67;;;6.20;;
8415;SDS011;4245;42.120;24.732;2023-05-10T01:11:21;10.23;;;6.33;;
8415;SDS011;4245;42.120;24.732;2023-05-10T01:13:51;11.53;;;6.07;;
8415;SDS011;4245;42.120;24.732;2023-05-10T01:16:21;13.47;;;7.00;;
8415;SDS011;4245;42.120;24.732;2023-05-10T01:18:49;9.33;;;5.70;;
8415;SDS011;4245;42.120;24.732;2023-05-10T01:21:19;8.87;;;5.73;;
8415;SDS011;4245;42.120;24.732;2023-05-10T01:27:00;9.97;;;5.57;;
8415;SDS011;4245;42.120;24.732;2023-05-10T01:29:51;8.20;;;5.97;;
8415;SDS011;4245;42.120;24.732;2023-05-10T01:32:40;11.73;;;6.30;;
8415;SDS011;4245;42.120;24.732;2023-05-10T01:35:16;8.20;;;5.90;;
8415;SDS011;4245;42.120;24.732;2023-05-10T01:37:46;9.60;;;6.37;;
8415;SDS011;4245;42.120;24.732;2023-05-10T01:40:19;11.23;;;5.67;;
8415;SDS011;4245;42.120;24.732;2023-05-10T01:42:51;9.63;;;5.73;;
8415;SDS011;4245;42.120;24.732;2023-05-10T01:45:22;9.43;;;6.37;;
8415;SDS011;4245;42.120;24.732;2023-05-10T01:48:01;12.43;;;6.50;;
8415;SDS011;4245;42.120;24.732;2023-05-10T01:50:31;10.30;;;6.60;;
8415;SDS011;4245;42.120;24.732;2023-05-10T01:53:00;9.33;;;6.13;;
8415;SDS011;4245;42.120;24.732;2023-05-10T01:55:29;12.43;;;7.40;;
8415;SDS011;4245;42.120;24.732;2023-05-10T01:58:00;10.30;;;7.00;;
8415;SDS011;4245;42.120;24.732;2023-05-10T02:00:30;10.07;;;6.87;;
8415;SDS011;4245;42.120;24.732;2023-05-10T02:02:59;12.53;;;7.90;;
8415;SDS011;4245;42.120;24.732;2023-05-10T02:05:28;12.90;;;8.07;;
8415;SDS011;4245;42.120;24.732;2023-05-10T02:07:58;10.40;;;7.33;;
8415;SDS011;4245;42.120;24.732;2023-05-10T02:10:27;11.43;;;8.30;;
8415;SDS011;4245;42.120;24.732;2023-05-10T02:12:54;14.07;;;7.80;;
8415;SDS011;4245;42.120;24.732;2023-05-10T02:15:24;12.43;;;7.97;;
8415;SDS011;4245;42.120;24.732;2023-05-10T02:17:53;15.40;;;8.13;;
8415;SDS011;4245;42.120;24.732;2023-05-10T02:20:23;13.63;;;8.47;;
8415;SDS011;4245;42.120;24.732;2023-05-10T02:22:53;14.37;;;8.20;;
8415;SDS011;4245;42.120;24.732;2023-05-10T02:25:21;10.23;;;8.13;;
8415;SDS011;4245;42.120;24.732;2023-05-10T02:27:49;13.60;;;8.10;;
8415;SDS011;4245;42.120;24.732;2023-05-10T02:30:17;12.60;;;8.70;;
8415;SDS011;4245;42.120;24.732;2023-05-10T02:32:45;12.67;;;7.83;;
8415;SDS011;4245;42.120;24.732;2023-05-10T02:35:15;13.63;;;8.37;;
8415;SDS011;4245;42.120;24.732;2023-05-10T02:37:44;15.83;;;9.80;;
8415;SDS011;4245;42.120;24.732;2023-05-10T02:40:13;19.37;;;12.87;;
8415;SDS011;4245;42.120;24.732;2023-05-10T02:42:43;20.67;;;15.43;;
8415;SDS011;4245;42.120;24.732;2023-05-10T02:45:12;32.07;;;19.20;;
8415;SDS011;4245;42.120;24.732;2023-05-10T02:47:41;29.93;;;20.37;;
8415;SDS011;4245;42.120;24.732;2023-05-10T02:50:09;30.53;;;21.30;;
8415;SDS011;4245;42.120;24.732;2023-05-10T02:52:38;28.17;;;19.77;;
8415;SDS011;4245;42.120;24.732;2023-05-10T02:55:09;23.93;;;16.00;;
8415;SDS011;4245;42.120;24.732;2023-05-10T02:57:40;24.03;;;16.50;;
8415;SDS011;4245;42.120;24.732;2023-05-10T03:00:09;20.77;;;12.73;;
8415;SDS011;4245;42.120;24.732;2023-05-10T03:02:37;18.87;;;11.47;;
8415;SDS011;4245;42.120;24.732;2023-05-10T03:05:04;16.67;;;11.73;;
8415;SDS011;4245;42.120;24.732;2023-05-10T03:07:31;15.90;;;10.40;;
8415;SDS011;4245;42.120;24.732;2023-05-10T03:09:59;14.80;;;10.40;;
8415;SDS011;4245;42.120;24.732;2023-05-10T03:12:43;18.73;;;10.40;;
8415;SDS011;4245;42.120;24.732;2023-05-10T03:15:20;16.20;;;10.03;;
8415;SDS011;4245;42.120;24.732;2023-05-10T03:17:55;16.70;;;11.53;;
8415;SDS011;4245;42.120;24.732;2023-05-10T03:20:29;18.87;;;11.57;;
8415;SDS011;4245;42.120;24.732;2023-05-10T03:23:00;20.07;;;11.40;;
8415;SDS011;4245;42.120;24.732;2023-05-10T03:25:31;18.47;;;11.33;;
8415;SDS011;4245;42.120;24.732;2023-05-10T03:28:00;14.67;;;10.20;;
8415;SDS011;4245;42.120;24.732;2023-05-10T03:30:28;16.33;;;11.07;;
8415;SDS011;4245;42.120;24.732;2023-05-10T03:32:55;19.07;;;10.60;;
8415;SDS011;4245;42.120;24.732;2023-05-10T03:35:22;20.67;;;11.87;;
8415;SDS011;4245;42.120;24.732;2023-05-10T03:37:50;19.87;;;11.53;;
8415;SDS011;4245;42.120;24.732;2023-05-10T03:40:16;19.27;;;10.40;;
8415;SDS011;4245;42.120;24.732;2023-05-10T03:42:43;16.10;;;10.93;;
8415;SDS011;4245;42.120;24.732;2023-05-10T03:45:11;17.70;;;11.30;;
8415;SDS011;4245;42.120;24.732;2023-05-10T03:47:38;20.70;;;11.43;;
8415;SDS011;4245;42.120;24.732;2023-05-10T03:50:06;22.60;;;11.83;;
8415;SDS011;4245;42.120;24.732;2023-05-10T03:52:33;16.80;;;11.27;;
8415;SDS011;4245;42.120;24.732;2023-05-10T03:55:00;18.03;;;10.67;;
8415;SDS011;4245;42.120;24.732;2023-05-10T03:57:28;16.20;;;10.37;;
8415;SDS011;4245;42.120;24.732;2023-05-10T03:59:55;14.67;;;10.07;;
8415;SDS011;4245;42.120;24.732;2023-05-10T04:02:23;16.87;;;11.03;;
8415;SDS011;4245;42.120;24.732;2023-05-10T04:04:50;14.93;;;10.60;;
8415;SDS011;4245;42.120;24.732;2023-05-10T04:07:17;15.43;;;10.00;;
8415;SDS011;4245;42.120;24.732;2023-05-10T04:09:43;19.27;;;10.40;;
8415;SDS011;4245;42.120;24.732;2023-05-10T04:12:10;23.17;;;12.60;;
8415;SDS011;4245;42.120;24.732;2023-05-10T04:14:37;22.50;;;12.77;;
8415;SDS011;4245;42.120;24.732;2023-05-10T04:17:04;28.00;;;12.73;;
8415;SDS011;4245;42.120;24.732;2023-05-10T04:19:32;25.07;;;11.70;;
8415;SDS011;4245;42.120;24.732;2023-05-10T04:21:59;25.03;;;12.80;;
8415;SDS011;4245;42.120;24.732;2023-05-10T04:24:26;26.03;;;11.90;;
8415;SDS011;4245;42.120;24.732;2023-05-10T04:26:53;17.77;;;10.87;;
8415;SDS011;4245;42.120;24.732;2023-05-10T04:29:21;20.97;;;11.13;;
8415;SDS011;4245;42.120;24.732;2023-05-10T04:31:47;18.67;;;10.93;;
8415;SDS011;4245;42.120;24.732;2023-05-10T04:34:15;18.33;;;12.00;;
8415;SDS011;4245;42.120;24.732;2023-05-10T04:36:44;17.97;;;11.70;;
8415;SDS011;4245;42.120;24.732;2023-05-10T04:39:10;24.67;;;12.70;;
8415;SDS011;4245;42.120;24.732;2023-05-10T04:41:38;21.73;;;11.97;;
8415;SDS011;4245;42.120;24.732;2023-05-10T04:44:05;28.57;;;13.10;;
8415;SDS011;4245;42.120;24.732;2023-05-10T04:46:32;20.97;;;11.23;;
8415;SDS011;4245;42.120;24.732;2023-05-10T04:48:59;20.70;;;10.53;;
8415;SDS011;4245;42.120;24.732;2023-05-10T04:51:26;20.53;;;10.27;;
8415;SDS011;4245;42.120;24.732;2023-05-10T04:53:55;23.73;;;11.13;;
8415;SDS011;4245;42.120;24.732;2023-05-10T04:56:22;14.17;;;8.77;;
8415;SDS011;4245;42.120;24.732;2023-05-10T04:58:49;13.77;;;8.37;;
8415;SDS011;4245;42.120;24.732;2023-05-10T05:01:16;16.33;;;8.00;;
8415;SDS011;4245;42.120;24.732;2023-05-10T05:03:42;15.73;;;8.60;;
8415;SDS011;4245;42.120;24.732;2023-05-10T05:06:09;15.27;;;8.97;;
8415;SDS011;4245;42.120;24.732;2023-05-10T05:08:36;18.00;;;8.93;;
8415;SDS011;4245;42.120;24.732;2023-05-10T05:11:04;14.53;;;8.77;;
8415;SDS011;4245;42.120;24.732;2023-05-10T05:13:31;17.43;;;8.17;;
8415;SDS011;4245;42.120;24.732;2023-05-10T05:15:59;21.03;;;10.10;;
8415;SDS011;4245;42.120;24.732;2023-05-10T05:18:27;18.97;;;9.57;;
8415;SDS011;4245;42.120;24.732;2023-05-10T05:20:54;17.67;;;9.63;;
8415;SDS011;4245;42.120;24.732;2023-05-10T05:23:20;25.93;;;11.93;;
8415;SDS011;4245;42.120;24.732;2023-05-10T05:25:50;15.70;;;8.37;;
8415;SDS011;4245;42.120;24.732;2023-05-10T05:28:19;11.83;;;7.67;;
8415;SDS011;4245;42.120;24.732;2023-05-10T05:30:46;18.13;;;10.27;;
8415;SDS011;4245;42.120;24.732;2023-05-10T05:33:13;17.27;;;8.80;;
8415;SDS011;4245;42.120;24.732;2023-05-10T05:35:41;13.20;;;7.70;;
8415;SDS011;4245;42.120;24.732;2023-05-10T05:38:12;11.30;;;7.13;;
8415;SDS011;4245;42.120;24.732;2023-05-10T05:40:39;12.03;;;7.53;;
8415;SDS011;4245;42.120;24.732;2023-05-10T05:43:06;16.00;;;7.70;;
8415;SDS011;4245;42.120;24.732;2023-05-10T05:45:34;10.70;;;7.00;;
8415;SDS011;4245;42.120;24.732;2023-05-10T05:48:01;14.57;;;7.93;;
8415;SDS011;4245;42.120;24.732;2023-05-10T05:50:27;17.87;;;8.00;;
8415;SDS011;4245;42.120;24.732;2023-05-10T05:52:54;14.47;;;8.80;;
8415;SDS011;4245;42.120;24.732;2023-05-10T05:55:22;14.33;;;7.90;;
8415;SDS011;4245;42.120;24.732;2023-05-10T05:57:49;12.13;;;7.40;;
8415;SDS011;4245;42.120;24.732;2023-05-10T06:00:16;14.50;;;7.93;;
8415;SDS011;4245;42.120;24.732;2023-05-10T06:02:44;12.97;;;8.00;;
8415;SDS011;4245;42.120;24.732;2023-05-10T06:05:11;16.17;;;9.33;;
8415;SDS011;4245;42.120;24.732;2023-05-10T06:07:39;15.20;;;8.97;;
8415;SDS011;4245;42.120;24.732;2023-05-10T06:10:07;11.43;;;6.60;;
8415;SDS011;4245;42.120;24.732;2023-05-10T06:12:34;14.30;;;7.17;;
8415;SDS011;4245;42.120;24.732;2023-05-10T06:15:01;17.43;;;8.10;;
8415;SDS011;4245;42.120;24.732;2023-05-10T06:17:28;15.37;;;8.60;;
8415;SDS011;4245;42.120;24.732;2023-05-10T06:19:56;10.97;;;7.27;;
8415;SDS011;4245;42.120;24.732;2023-05-10T06:22:23;13.60;;;7.40;;
8415;SDS011;4245;42.120;24.732;2023-05-10T06:24:50;16.40;;;6.50;;
8415;SDS011;4245;42.120;24.732;2023-05-10T06:27:16;11.30;;;6.33;;
8415;SDS011;4245;42.120;24.732;2023-05-10T06:29:43;12.37;;;6.63;;
8415;SDS011;4245;42.120;24.732;2023-05-10T06:32:10;12.27;;;6.87;;
8415;SDS011;4245;42.120;24.732;2023-05-10T06:34:37;8.53;;;6.53;;
8415;SDS011;4245;42.120;24.732;2023-05-10T06:37:05;12.43;;;6.43;;
8415;SDS011;4245;42.120;24.732;2023-05-10T06:39:32;11.50;;;6.50;;
8415;SDS011;4245;42.120;24.732;2023-05-10T06:41:59;14.97;;;7.43;;
8415;SDS011;4245;42.120;24.732;2023-05-10T06:47:02;14.80;;;9.03;;
8415;SDS011;4245;42.120;24.732;2023-05-10T06:49:28;10.43;;;7.20;;
8415;SDS011;4245;42.120;24.732;2023-05-10T06:51:55;16.00;;;7.10;;
8415;SDS011;4245;42.120;24.732;2023-05-10T06:54:24;8.17;;;5.40;;
8415;SDS011;4245;42.120;24.732;2023-05-10T06:56:50;11.80;;;5.90;;
8415;SDS011;4245;42.120;24.732;2023-05-10T06:59:17;13.63;;;5.77;;
8415;SDS011;4245;42.120;24.732;2023-05-10T07:01:44;8.50;;;5.47;;
8415;SDS011;4245;42.120;24.732;2023-05-10T07:04:11;10.63;;;6.23;;
8415;SDS011;4245;42.120;24.732;2023-05-10T07:06:38;14.40;;;6.03;;
8415;SDS011;4245;42.120;24.732;2023-05-10T07:09:05;7.27;;;6.00;;
8415;SDS011;4245;42.120;24.732;2023-05-10T07:11:34;12.47;;;6.50;;
8415;SDS011;4245;42.120;24.732;2023-05-10T07:14:01;10.17;;;6.60;;
8415;SDS011;4245;42.120;24.732;2023-05-10T07:16:28;9.43;;;5.47;;
8415;SDS011;4245;42.120;24.732;2023-05-10T07:18:54;11.63;;;5.97;;
8415;SDS011;4245;42.120;24.732;2023-05-10T07:21:21;10.57;;;5.57;;
8415;SDS011;4245;42.120;24.732;2023-05-10T07:23:49;11.03;;;6.07;;
8415;SDS011;4245;42.120;24.732;2023-05-10T07:26:16;11.27;;;5.50;;
8415;SDS011;4245;42.120;24.732;2023-05-10T07:28:45;13.50;;;5.70;;
8415;SDS011;4245;42.120;24.732;2023-05-10T07:31:12;9.57;;;5.10;;
8415;SDS011;4245;42.120;24.732;2023-05-10T07:33:38;16.00;;;5.97;;
8415;SDS011;4245;42.120;24.732;2023-05-10T07:36:05;8.00;;;5.13;;
8415;SDS011;4245;42.120;24.732;2023-05-10T07:38:32;14.20;;;9.27;;
8415;SDS011;4245;42.120;24.732;2023-05-10T07:40:59;17.97;;;12.63;;
8415;SDS011;4245;42.120;24.732;2023-05-10T07:43:26;10.57;;;5.83;;
8415;SDS011;4245;42.120;24.732;2023-05-10T07:45:54;15.37;;;8.67;;
8415;SDS011;4245;42.120;24.732;2023-05-10T07:48:22;12.00;;;4.70;;
8415;SDS011;4245;42.120;24.732;2023-05-10T07:50:49;11.07;;;5.47;;
8415;SDS011;4245;42.120;24.732;2023-05-10T07:53:16;12.80;;;5.80;;
8415;SDS011;4245;42.120;24.732;2023-05-10T07:55:43;10.47;;;5.30;;
8415;SDS011;4245;42.120;24.732;2023-05-10T07:58:11;9.70;;;4.47;;
8415;SDS011;4245;42.120;24.732;2023-05-10T08:00:37;9.83;;;5.43;;
8415;SDS011;4245;42.120;24.732;2023-05-10T08:03:07;9.70;;;5.30;;
8415;SDS011;4245;42.120;24.732;2023-05-10T08:05:34;7.33;;;4.80;;
8415;SDS011;4245;42.120;24.732;2023-05-10T08:08:01;5.90;;;4.80;;
8415;SDS011;4245;42.120;24.732;2023-05-10T08:10:28;8.53;;;4.70;;
8415;SDS011;4245;42.120;24.732;2023-05-10T08:12:55;7.00;;;5.07;;
8415;SDS011;4245;42.120;24.732;2023-05-10T08:15:23;9.70;;;5.00;;
8415;SDS011;4245;42.120;24.732;2023-05-10T08:17:50;9.63;;;5.50;;
8415;SDS011;4245;42.120;24.732;2023-05-10T08:20:19;8.33;;;4.90;;
8415;SDS011;4245;42.120;24.732;2023-05-10T08:22:46;8.70;;;4.70;;
8415;SDS011;4245;42.120;24.732;2023-05-10T08:25:13;5.27;;;4.57;;
8415;SDS011;4245;42.120;24.732;2023-05-10T08:27:40;5.70;;;4.10;;
8415;SDS011;4245;42.120;24.732;2023-05-10T08:30:07;12.67;;;4.77;;
8415;SDS011;4245;42.120;24.732;2023-05-10T08:32:35;8.23;;;5.30;;
8415;SDS011;4245;42.120;24.732;2023-05-10T08:35:03;8.20;;;5.30;;
8415;SDS011;4245;42.120;24.732;2023-05-10T08:37:31;6.87;;;5.13;;
8415;SDS011;4245;42.120;24.732;2023-05-10T08:39:58;7.17;;;4.67;;
8415;SDS011;4245;42.120;24.732;2023-05-10T08:42:25;10.77;;;5.60;;
8415;SDS011;4245;42.120;24.732;2023-05-10T08:44:57;27.10;;;19.17;;
8415;SDS011;4245;42.120;24.732;2023-05-10T08:47:25;10.20;;;4.80;;
8415;SDS011;4245;42.120;24.732;2023-05-10T08:49:52;8.47;;;5.53;;
8415;SDS011;4245;42.120;24.732;2023-05-10T08:52:21;10.50;;;5.93;;
8415;SDS011;4245;42.120;24.732;2023-05-10T08:54:52;12.53;;;6.37;;
8415;SDS011;4245;42.120;24.732;2023-05-10T08:57:19;14.40;;;8.63;;
8415;SDS011;4245;42.120;24.732;2023-05-10T08:59:46;6.93;;;5.00;;
8415;SDS011;4245;42.120;24.732;2023-05-10T09:02:14;21.33;;;7.60;;
8415;SDS011;4245;42.120;24.732;2023-05-10T09:04:41;17.00;;;8.07;;
8415;SDS011;4245;42.120;24.732;2023-05-10T09:07:07;15.47;;;7.77;;
8415;SDS011;4245;42.120;24.732;2023-05-10T09:09:34;18.33;;;8.30;;
8415;SDS011;4245;42.120;24.732;2023-05-10T09:12:04;16.90;;;7.87;;
8415;SDS011;4245;42.120;24.732;2023-05-10T09:14:32;14.87;;;7.30;;
8415;SDS011;4245;42.120;24.732;2023-05-10T09:17:02;20.33;;;9.47;;
8415;SDS011;4245;42.120;24.732;2023-05-10T09:19:29;14.20;;;7.97;;
8415;SDS011;4245;42.120;24.732;2023-05-10T09:21:56;17.00;;;7.87;;
8415;SDS011;4245;42.120;24.732;2023-05-10T09:24:25;14.33;;;8.20;;
8415;SDS011;4245;42.120;24.732;2023-05-10T09:26:53;17.40;;;8.57;;
8415;SDS011;4245;42.120;24.732;2023-05-10T09:29:21;9.27;;;6.43;;
8415;SDS011;4245;42.120;24.732;2023-05-10T09:31:49;14.80;;;7.23;;
8415;SDS011;4245;42.120;24.732;2023-05-10T09:34:17;18.53;;;8.33;;
8415;SDS011;4245;42.120;24.732;2023-05-10T09:36:50;11.23;;;6.50;;
8415;SDS011;4245;42.120;24.732;2023-05-10T09:39:18;10.83;;;6.37;;
8415;SDS011;4245;42.120;24.732;2023-05-10T09:41:45;14.80;;;7.23;;
8415;SDS011;4245;42.120;24.732;2023-05-10T09:44:16;9.87;;;6.37;;
8415;SDS011;4245;42.120;24.732;2023-05-10T09:46:50;11.50;;;6.53;;
8415;SDS011;4245;42.120;24.732;2023-05-10T09:49:18;13.97;;;7.60;;
8415;SDS011;4245;42.120;24.732;2023-05-10T09:51:45;14.97;;;7.00;;
8415;SDS011;4245;42.120;24.732;2023-05-10T09:54:12;13.90;;;7.23;;
8415;SDS011;4245;42.120;24.732;2023-05-10T09:56:40;18.20;;;8.87;;
8415;SDS011;4245;42.120;24.732;2023-05-10T09:59:09;10.67;;;7.13;;
8415;SDS011;4245;42.120;24.732;2023-05-10T10:01:37;11.47;;;6.10;;
8415;SDS011;4245;42.120;24.732;2023-05-10T10:04:05;8.53;;;6.00;;
8415;SDS011;4245;42.120;24.732;2023-05-10T10:06:36;9.87;;;5.80;;
8415;SDS011;4245;42.120;24.732;2023-05-10T10:09:04;9.83;;;5.03;;
8415;SDS011;4245;42.120;24.732;2023-05-10T10:11:33;7.47;;;4.60;;
8415;SDS011;4245;42.120;24.732;2023-05-10T10:14:01;7.30;;;4.57;;
8415;SDS011;4245;42.120;24.732;2023-05-10T10:16:29;9.53;;;4.80;;
8415;SDS011;4245;42.120;24.732;2023-05-10T10:18:56;8.10;;;4.47;;
8415;SDS011;4245;42.120;24.732;2023-05-10T10:21:24;8.63;;;4.77;;
8415;SDS011;4245;42.120;24.732;2023-05-10T10:23:52;8.23;;;4.70;;
8415;SDS011;4245;42.120;24.732;2023-05-10T10:26:19;9.33;;;5.10;;
8415;SDS011;4245;42.120;24.732;2023-05-10T10:28:49;6.80;;;4.33;;
8415;SDS011;4245;42.120;24.732;2023-05-10T10:31:25;14.90;;;4.90;;
8415;SDS011;4245;42.120;24.732;2023-05-10T10:34:03;7.13;;;4.83;;
8415;SDS011;4245;42.120;24.732;2023-05-10T10:36:34;10.30;;;5.73;;
8415;SDS011;4245;42.120;24.732;2023-05-10T10:39:08;11.93;;;5.80;;
8415;SDS011;4245;42.120;24.732;2023-05-10T10:41:38;7.83;;;4.90;;
8415;SDS011;4245;42.120;24.732;2023-05-10T10:47:06;8.17;;;5.30;;
8415;SDS011;4245;42.120;24.732;2023-05-10T10:49:43;9.33;;;5.80;;
8415;SDS011;4245;42.120;24.732;2023-05-10T10:52:22;7.63;;;5.00;;
8415;SDS011;4245;42.120;24.732;2023-05-10T10:54:54;8.73;;;5.30;;
8415;SDS011;4245;42.120;24.732;2023-05-10T10:57:25;9.17;;;4.73;;
8415;SDS011;4245;42.120;24.732;2023-05-10T10:59:58;10.87;;;4.87;;
8415;SDS011;4245;42.120;24.732;2023-05-10T11:02:45;7.73;;;5.00;;
8415;SDS011;4245;42.120;24.732;2023-05-10T11:08:16;10.90;;;4.63;;
8415;SDS011;4245;42.120;24.732;2023-05-10T11:11:03;11.30;;;5.40;;
8415;SDS011;4245;42.120;24.732;2023-05-10T11:13:33;5.67;;;4.90;;
8415;SDS011;4245;42.120;24.732;2023-05-10T11:16:11;8.57;;;5.43;;
8415;SDS011;4245;42.120;24.732;2023-05-10T11:18:39;8.50;;;5.40;;
8415;SDS011;4245;42.120;24.732;2023-05-10T11:21:08;11.07;;;5.53;;
8415;SDS011;4245;42.120;24.732;2023-05-10T11:23:49;12.50;;;6.57;;
8415;SDS011;4245;42.120;24.732;2023-05-10T11:26:17;8.50;;;6.20;;
8415;SDS011;4245;42.120;24.732;2023-05-10T11:28:48;6.57;;;4.67;;
8415;SDS011;4245;42.120;24.732;2023-05-10T11:31:15;9.17;;;5.77;;
8415;SDS011;4245;42.120;24.732;2023-05-10T11:33:44;8.87;;;5.40;;
8415;SDS011;4245;42.120;24.732;2023-05-10T11:36:11;12.03;;;5.80;;
8415;SDS011;4245;42.120;24.732;2023-05-10T11:38:39;13.10;;;6.10;;
8415;SDS011;4245;42.120;24.732;2023-05-10T11:41:09;9.50;;;5.20;;
8415;SDS011;4245;42.120;24.732;2023-05-10T11:43:36;6.77;;;6.10;;
8415;SDS011;4245;42.120;24.732;2023-05-10T11:46:04;8.75;;;5.15;;
8415;SDS011;4245;42.120;24.732;2023-05-10T11:48:32;5.68;;;4.80;;
8415;SDS011;4245;42.120;24.732;2023-05-10T11:50:59;7.35;;;4.82;;
8415;SDS011;4245;42.120;24.732;2023-05-10T11:53:27;8.50;;;5.50;;
8415;SDS011;4245;42.120;24.732;2023-05-10T11:55:55;9.07;;;5.00;;
8415;SDS011;4245;42.120;24.732;2023-05-10T11:58:31;5.95;;;5.32;;
8415;SDS011;4245;42.120;24.732;2023-05-10T12:00:59;7.27;;;5.57;;
8415;SDS011;4245;42.120;24.732;2023-05-10T12:03:26;7.07;;;5.17;;
8415;SDS011;4245;42.120;24.732;2023-05-10T12:05:54;6.17;;;5.10;;
8415;SDS011;4245;42.120;24.732;2023-05-10T12:08:22;7.40;;;5.50;;
8415;SDS011;4245;42.120;24.732;2023-05-10T12:10:51;7.90;;;6.47;;
8415;SDS011;4245;42.120;24.732;2023-05-10T12:13:18;6.50;;;5.60;;
8415;SDS011;4245;42.120;24.732;2023-05-10T12:15:47;8.10;;;6.27;;
8415;SDS011;4245;42.120;24.732;2023-05-10T12:18:14;8.00;;;5.87;;
8415;SDS011;4245;42.120;24.732;2023-05-10T12:20:48;10.90;;;5.63;;
8415;SDS011;4245;42.120;24.732;2023-05-10T12:23:18;6.57;;;5.80;;
8415;SDS011;4245;42.120;24.732;2023-05-10T12:25:46;6.60;;;5.43;;
8415;SDS011;4245;42.120;24.732;2023-05-10T12:28:13;7.63;;;6.30;;
8415;SDS011;4245;42.120;24.732;2023-05-10T12:30:40;10.33;;;8.00;;
8415;SDS011;4245;42.120;24.732;2023-05-10T12:33:10;11.27;;;7.17;;
8415;SDS011;4245;42.120;24.732;2023-05-10T12:35:44;11.67;;;8.13;;
8415;SDS011;4245;42.120;24.732;2023-05-10T12:38:25;7.87;;;6.23;;
8415;SDS011;4245;42.120;24.732;2023-05-10T12:40:54;8.67;;;6.83;;
8415;SDS011;4245;42.120;24.732;2023-05-10T12:43:21;7.70;;;6.93;;
8415;SDS011;4245;42.120;24.732;2023-05-10T12:45:49;7.77;;;6.80;;
8415;SDS011;4245;42.120;24.732;2023-05-10T12:48:17;8.67;;;7.17;;
8415;SDS011;4245;42.120;24.732;2023-05-10T12:50:44;8.30;;;6.77;;
8415;SDS011;4245;42.120;24.732;2023-05-10T12:53:12;9.57;;;7.53;;
8415;SDS011;4245;42.120;24.732;2023-05-10T12:55:40;11.83;;;8.60;;
8415;SDS011;4245;42.120;24.732;2023-05-10T12:58:07;10.90;;;8.90;;
8415;SDS011;4245;42.120;24.732;2023-05-10T13:00:34;10.67;;;7.53;;
8415;SDS011;4245;42.120;24.732;2023-05-10T13:03:03;12.00;;;7.60;;
8415;SDS011;4245;42.120;24.732;2023-05-10T13:05:31;10.23;;;8.40;;
8415;SDS011;4245;42.120;24.732;2023-05-10T13:07:58;8.73;;;7.50;;
8415;SDS011;4245;42.120;24.732;2023-05-10T13:10:25;7.97;;;7.17;;
8415;SDS011;4245;42.120;24.732;2023-05-10T13:12:53;9.07;;;6.47;;
8415;SDS011;4245;42.120;24.732;2023-05-10T13:15:19;7.90;;;7.10;;
8415;SDS011;4245;42.120;24.732;2023-05-10T13:17:46;10.00;;;7.07;;
8415;SDS011;4245;42.120;24.732;2023-05-10T13:20:14;11.70;;;7.47;;
8415;SDS011;4245;42.120;24.732;2023-05-10T13:22:42;10.53;;;6.77;;
8415;SDS011;4245;42.120;24.732;2023-05-10T13:25:10;9.03;;;5.97;;
8415;SDS011;4245;42.120;24.732;2023-05-10T13:27:37;6.90;;;6.20;;
8415;SDS011;4245;42.120;24.732;2023-05-10T13:30:04;8.30;;;6.50;;
8415;SDS011;4245;42.120;24.732;2023-05-10T13:32:33;8.67;;;7.00;;
8415;SDS011;4245;42.120;24.732;2023-05-10T13:35:00;9.30;;;7.10;;
8415;SDS011;4245;42.120;24.732;2023-05-10T13:37:28;7.87;;;6.87;;
8415;SDS011;4245;42.120;24.732;2023-05-10T13:39:57;8.07;;;7.27;;
8415;SDS011;4245;42.120;24.732;2023-05-10T13:42:24;8.27;;;6.60;;
8415;SDS011;4245;42.120;24.732;2023-05-10T13:44:51;8.50;;;6.87;;
8415;SDS011;4245;42.120;24.732;2023-05-10T13:47:18;8.10;;;7.30;;
8415;SDS011;4245;42.120;24.732;2023-05-10T13:49:46;7.73;;;6.93;;
8415;SDS011;4245;42.120;24.732;2023-05-10T13:52:13;11.57;;;7.97;;
8415;SDS011;4245;42.120;24.732;2023-05-10T13:54:40;9.87;;;7.10;;
8415;SDS011;4245;42.120;24.732;2023-05-10T13:57:09;9.63;;;8.27;;
8415;SDS011;4245;42.120;24.732;2023-05-10T13:59:37;9.73;;;8.40;;
8415;SDS011;4245;42.120;24.732;2023-05-10T14:02:04;8.93;;;7.70;;
8415;SDS011;4245;42.120;24.732;2023-05-10T14:04:31;9.57;;;6.93;;
8415;SDS011;4245;42.120;24.732;2023-05-10T14:07:00;27.13;;;22.20;;
8415;SDS011;4245;42.120;24.732;2023-05-10T14:09:27;10.17;;;8.30;;
8415;SDS011;4245;42.120;24.732;2023-05-10T14:11:54;10.33;;;8.60;;
8415;SDS011;4245;42.120;24.732;2023-05-10T14:14:22;11.63;;;8.73;;
8415;SDS011;4245;42.120;24.732;2023-05-10T14:16:50;14.87;;;9.17;;
8415;SDS011;4245;42.120;24.732;2023-05-10T14:19:17;12.43;;;8.77;;
8415;SDS011;4245;42.120;24.732;2023-05-10T14:21:44;8.47;;;7.57;;
8415;SDS011;4245;42.120;24.732;2023-05-10T14:24:11;9.07;;;6.40;;
8415;SDS011;4245;42.120;24.732;2023-05-10T14:26:38;10.67;;;6.50;;
8415;SDS011;4245;42.120;24.732;2023-05-10T14:29:05;7.87;;;7.00;;
8415;SDS011;4245;42.120;24.732;2023-05-10T14:31:33;7.13;;;6.43;;
8415;SDS011;4245;42.120;24.732;2023-05-10T14:34:00;15.93;;;8.63;;
8415;SDS011;4245;42.120;24.732;2023-05-10T14:36:28;16.10;;;8.87;;
8415;SDS011;4245;42.120;24.732;2023-05-10T14:38:55;10.37;;;8.37;;
8415;SDS011;4245;42.120;24.732;2023-05-10T14:41:22;14.73;;;8.43;;
8415;SDS011;4245;42.120;24.732;2023-05-10T14:43:49;16.57;;;8.63;;
8415;SDS011;4245;42.120;24.732;2023-05-10T14:46:16;13.10;;;8.40;;
8415;SDS011;4245;42.120;24.732;2023-05-10T14:48:45;10.57;;;6.93;;
8415;SDS011;4245;42.120;24.732;2023-05-10T14:51:12;9.83;;;6.80;;
8415;SDS011;4245;42.120;24.732;2023-05-10T14:53:39;10.00;;;6.77;;
8415;SDS011;4245;42.120;24.732;2023-05-10T14:56:06;10.67;;;7.53;;
8415;SDS011;4245;42.120;24.732;2023-05-10T14:58:33;8.37;;;6.83;;
8415;SDS011;4245;42.120;24.732;2023-05-10T15:01:00;12.90;;;8.10;;
8415;SDS011;4245;42.120;24.732;2023-05-10T15:03:27;12.27;;;6.60;;
8415;SDS011;4245;42.120;24.732;2023-05-10T15:05:55;9.20;;;6.43;;
8415;SDS011;4245;42.120;24.732;2023-05-10T15:08:23;10.40;;;7.03;;